Time;durP1;ratioP1;P1;durP2;ratioP2;P2;SDS_P1;SDS_P2;PMS_P1;PMS_P2;Temp;Humidity;BMP_temperature;BMP_pressure;BME280_temperature;BME280_humidity;BME280_pressure;Samples;Min_cycle;Max_cycle;Signal;HPM_P1;HPM_P2
2024/03/21 00:02:24;;;;;;;24.65;22.05;;;11.50;99.90;;;;;;7366590;19;20657;-63
2024/03/21 00:04:50;;;;;;;25.15;21.52;;;11.60;99.90;;;;;;7365949;19;20018;-63
2024/03/21 00:07:16;;;;;;;27.92;22.52;;;11.60;99.90;;;;;;7363738;19;20046;-64
2024/03/21 00:09:42;;;;;;;24.20;21.33;;;11.60;99.90;;;;;;7355794;19;20024;-64
2024/03/21 00:12:09;;;;;;;24.95;21.08;;;11.60;99.90;;;;;;7363878;19;20029;-64
2024/03/21 00:14:36;;;;;;;22.02;18.83;;;11.60;99.90;;;;;;7357136;19;20363;-66
2024/03/21 00:17:02;;;;;;;23.13;19.30;;;11.70;99.90;;;;;;7357782;19;20019;-67
2024/03/21 00:19:29;;;;;;;22.55;19.60;;;11.70;99.90;;;;;;7365297;19;20120;-68
2024/03/21 00:21:56;;;;;;;21.90;17.80;;;11.70;99.90;;;;;;7363438;19;20018;-67
2024/03/21 00:24:22;;;;;;;22.33;19.42;;;11.70;99.90;;;;;;7363228;19;20010;-67
2024/03/21 00:26:49;;;;;;;21.88;19.50;;;11.70;99.90;;;;;;7362264;19;20022;-65
2024/03/21 00:29:15;;;;;;;23.25;19.27;;;11.70;99.90;;;;;;7355748;19;20022;-64
2024/03/21 00:31:41;;;;;;;22.75;18.83;;;11.70;99.90;;;;;;7360982;19;20049;-64
2024/03/21 00:34:10;;;;;;;24.17;19.83;;;11.70;99.90;;;;;;7367141;19;20021;-67
2024/03/21 00:36:36;;;;;;;24.25;19.50;;;11.70;99.90;;;;;;7366851;19;20900;-67
2024/03/21 00:39:03;;;;;;;26.90;20.92;;;11.70;99.90;;;;;;7368277;19;20019;-67
2024/03/21 00:41:29;;;;;;;25.90;20.55;;;11.70;99.90;;;;;;7372312;19;20025;-64
2024/03/21 00:43:56;;;;;;;26.63;20.45;;;11.60;99.90;;;;;;7372467;19;20391;-67
2024/03/21 00:46:23;;;;;;;26.27;20.52;;;11.70;99.90;;;;;;7370070;19;20398;-67
2024/03/21 00:48:49;;;;;;;27.20;21.75;;;11.60;99.90;;;;;;7369679;19;20022;-68
2024/03/21 00:51:15;;;;;;;26.20;20.40;;;11.60;99.90;;;;;;7371497;19;20027;-63
2024/03/21 00:53:41;;;;;;;25.48;19.95;;;11.60;99.90;;;;;;7370522;19;20026;-67
2024/03/21 00:56:13;;;;;;;24.15;19.13;;;11.50;99.90;;;;;;7372512;19;20486;-66
2024/03/21 00:59:08;;;;;;;25.50;20.13;;;11.50;99.90;;;;;;7365100;19;20021;-67
2024/03/21 01:01:35;;;;;;;27.83;21.38;;;11.50;99.90;;;;;;7376877;19;20019;-64
2024/03/21 01:04:01;;;;;;;25.48;21.42;;;11.40;99.90;;;;;;7371160;19;20015;-64
2024/03/21 01:06:27;;;;;;;30.95;22.00;;;11.40;99.90;;;;;;7375314;19;20050;-64
2024/03/21 01:08:57;;;;;;;27.27;21.13;;;11.40;99.90;;;;;;7373185;19;20090;-67
2024/03/21 01:11:23;;;;;;;28.98;22.88;;;11.40;99.90;;;;;;7372211;19;20085;-67
2024/03/21 01:13:49;;;;;;;28.23;21.55;;;11.40;99.90;;;;;;7375966;19;20021;-67
2024/03/21 01:16:16;;;;;;;25.33;20.65;;;11.40;99.90;;;;;;7375178;19;20018;-67
2024/03/21 01:18:42;;;;;;;27.80;21.50;;;11.40;99.90;;;;;;7365173;19;20529;-64
2024/03/21 01:21:09;;;;;;;28.70;21.23;;;11.40;99.90;;;;;;7373761;19;20063;-67
2024/03/21 01:23:36;;;;;;;26.05;20.90;;;11.40;99.90;;;;;;7374403;19;20031;-67
2024/03/21 01:26:03;;;;;;;29.10;21.70;;;11.40;99.90;;;;;;7376598;19;20018;-67
2024/03/21 01:28:30;;;;;;;27.73;22.02;;;11.40;99.90;;;;;;7370975;19;21009;-64
2024/03/21 01:30:59;;;;;;;25.52;21.38;;;11.50;99.90;;;;;;7366102;19;20014;-67
2024/03/21 01:33:27;;;;;;;28.67;22.05;;;11.50;99.90;;;;;;7374711;19;20416;-63
2024/03/21 01:35:53;;;;;;;29.95;21.25;;;11.50;99.90;;;;;;7370207;19;20035;-67
2024/03/21 01:38:19;;;;;;;27.25;19.52;;;11.50;99.90;;;;;;7374027;19;20585;-67
2024/03/21 01:40:45;;;;;;;22.67;18.65;;;11.50;99.90;;;;;;7372927;19;20018;-64
2024/03/21 01:43:24;;;;;;;25.08;18.67;;;11.50;99.90;;;;;;7372392;19;20087;-64
2024/03/21 01:46:14;;;;;;;24.83;17.58;;;11.50;99.90;;;;;;7372502;19;20368;-64
2024/03/21 01:48:43;;;;;;;24.58;17.08;;;11.50;99.90;;;;;;7371047;19;20025;-64
2024/03/21 01:51:11;;;;;;;21.33;17.13;;;11.50;99.90;;;;;;7374389;19;20595;-63
2024/03/21 01:53:39;;;;;;;23.98;18.55;;;11.50;99.90;;;;;;7371115;19;20486;-64
2024/03/21 01:56:06;;;;;;;24.23;18.70;;;11.40;99.90;;;;;;7373100;19;20023;-67
2024/03/21 01:58:32;;;;;;;24.83;19.67;;;11.40;99.90;;;;;;7370367;19;20022;-66
2024/03/21 02:01:29;;;;;;;26.88;20.63;;;11.40;99.90;;;;;;7372526;19;20019;-67
2024/03/21 02:04:00;;;;;;;24.48;19.42;;;11.40;99.90;;;;;;7369399;19;20791;-69
2024/03/21 02:06:32;;;;;;;27.52;19.63;;;11.30;99.90;;;;;;7373619;19;20053;-63
2024/03/21 02:09:00;;;;;;;26.15;20.58;;;11.30;99.90;;;;;;7369465;19;20378;-64
2024/03/21 02:11:27;;;;;;;28.00;21.73;;;11.30;99.90;;;;;;7372073;19;20023;-64
2024/03/21 02:13:54;;;;;;;26.15;20.27;;;11.30;99.90;;;;;;7371636;19;20798;-67
2024/03/21 02:16:22;;;;;;;29.15;19.73;;;11.20;99.90;;;;;;7373017;19;20018;-64
2024/03/21 02:18:49;;;;;;;24.67;19.08;;;11.20;99.90;;;;;;7371061;19;20018;-64
2024/03/21 02:24:04;;;;;;;23.42;19.58;;;11.20;99.90;;;;;;7368311;19;20021;-63
2024/03/21 02:26:30;;;;;;;25.38;17.83;;;11.20;99.90;;;;;;7366730;19;20045;-63
2024/03/21 02:28:56;;;;;;;23.48;18.05;;;11.10;99.90;;;;;;7370138;19;20030;-63
2024/03/21 02:31:23;;;;;;;24.20;18.08;;;11.10;99.90;;;;;;7369066;19;20061;-64
2024/03/21 02:33:50;;;;;;;21.83;16.55;;;11.10;99.90;;;;;;7368011;19;20022;-64
2024/03/21 02:36:16;;;;;;;21.30;16.77;;;11.10;99.90;;;;;;7366454;19;20029;-63
2024/03/21 02:38:42;;;;;;;21.52;16.63;;;11.10;99.90;;;;;;7370363;19;20379;-64
2024/03/21 02:41:09;;;;;;;21.70;17.10;;;11.10;99.90;;;;;;7371730;19;20086;-63
2024/03/21 02:43:35;;;;;;;20.73;16.80;;;11.00;99.90;;;;;;7364450;19;20022;-67
2024/03/21 02:46:01;;;;;;;19.92;16.58;;;11.00;99.90;;;;;;7370130;19;20121;-66
2024/03/21 02:48:30;;;;;;;22.00;16.88;;;11.00;99.90;;;;;;7370195;19;20424;-67
2024/03/21 02:50:56;;;;;;;20.88;15.73;;;10.90;99.90;;;;;;7365362;19;20603;-67
2024/03/21 02:53:22;;;;;;;20.52;14.85;;;10.90;99.90;;;;;;7371263;19;20055;-66
2024/03/21 02:55:48;;;;;;;20.30;16.50;;;10.90;99.90;;;;;;7367413;19;20033;-67
2024/03/21 02:58:15;;;;;;;18.35;13.88;;;10.90;99.90;;;;;;7372046;19;20078;-64
2024/03/21 03:00:41;;;;;;;19.73;14.05;;;10.80;99.90;;;;;;7366890;19;20022;-67
2024/03/21 03:03:07;;;;;;;20.45;14.63;;;10.80;99.90;;;;;;7369216;19;20022;-64
2024/03/21 03:05:40;;;;;;;19.30;15.05;;;10.70;99.90;;;;;;7368779;19;20387;-67
2024/03/21 03:08:07;;;;;;;18.75;14.57;;;10.70;99.90;;;;;;7364901;19;20124;-68
2024/03/21 03:10:35;;;;;;;17.23;13.75;;;10.70;99.90;;;;;;7366044;19;20721;-67
2024/03/21 03:13:01;;;;;;;17.90;13.75;;;10.60;99.90;;;;;;7363573;19;20021;-67
2024/03/21 03:15:27;;;;;;;19.55;12.43;;;10.40;99.90;;;;;;7365375;19;20026;-67
2024/03/21 03:17:53;;;;;;;15.00;11.38;;;10.40;99.90;;;;;;7364751;19;20015;-67
2024/03/21 03:20:19;;;;;;;12.90;10.00;;;10.30;99.90;;;;;;7369326;19;20034;-67
2024/03/21 03:22:45;;;;;;;12.15;9.68;;;10.20;99.90;;;;;;7359780;19;20455;-68
2024/03/21 03:25:12;;;;;;;11.90;9.88;;;10.10;99.90;;;;;;7363247;19;20010;-67
2024/03/21 03:27:38;;;;;;;12.18;9.93;;;10.00;99.90;;;;;;7365227;19;20042;-67
2024/03/21 03:30:06;;;;;;;10.20;9.18;;;9.90;99.90;;;;;;7365508;19;20062;-67
2024/03/21 03:32:36;;;;;;;11.05;9.95;;;9.90;99.90;;;;;;7368194;19;20081;-67
2024/03/21 03:37:47;;;;;;;11.63;10.35;;;9.80;99.90;;;;;;7362711;19;20123;-66
2024/03/21 03:40:14;;;;;;;12.00;9.88;;;9.70;99.90;;;;;;7368117;19;20014;-67
2024/03/21 03:42:40;;;;;;;12.88;11.43;;;9.70;99.90;;;;;;7365848;19;20046;-64
2024/03/21 03:45:06;;;;;;;13.50;12.10;;;9.60;99.90;;;;;;7366068;19;20014;-67
2024/03/21 03:47:32;;;;;;;14.27;12.55;;;9.50;99.90;;;;;;7366707;19;20018;-67
2024/03/21 03:49:59;;;;;;;15.82;13.30;;;9.50;99.90;;;;;;7368948;19;21320;-64
2024/03/21 03:52:25;;;;;;;16.08;13.80;;;9.40;99.90;;;;;;7368128;19;20054;-67
2024/03/21 03:54:51;;;;;;;16.67;14.30;;;9.40;99.90;;;;;;7363113;19;20017;-67
2024/03/21 03:57:17;;;;;;;17.70;15.85;;;9.40;99.90;;;;;;7366391;19;20051;-67
2024/03/21 03:59:44;;;;;;;18.08;16.15;;;9.40;99.90;;;;;;7366261;19;20014;-64
2024/03/21 04:02:10;;;;;;;20.88;17.70;;;9.30;99.90;;;;;;7371476;19;20078;-64
2024/03/21 04:04:36;;;;;;;19.73;17.45;;;9.20;99.90;;;;;;7366834;19;20081;-67
2024/03/21 04:07:02;;;;;;;18.38;15.73;;;9.10;99.90;;;;;;7369237;19;20682;-66
2024/03/21 04:09:29;;;;;;;17.38;13.43;;;9.00;99.90;;;;;;7366644;19;20415;-64
2024/03/21 04:11:56;;;;;;;17.33;12.85;;;8.90;99.90;;;;;;7375569;19;20018;-67
2024/03/21 04:14:22;;;;;;;17.02;11.50;;;8.80;99.90;;;;;;7374382;19;20031;-67
2024/03/21 04:16:48;;;;;;;15.77;10.75;;;8.80;99.90;;;;;;7377140;19;20038;-66
2024/03/21 04:19:14;;;;;;;19.60;12.00;;;8.70;99.90;;;;;;7377824;19;20019;-67
2024/03/21 04:21:40;;;;;;;17.52;11.98;;;8.60;99.90;;;;;;7369512;19;20019;-67
2024/03/21 04:24:06;;;;;;;17.35;11.27;;;8.60;99.90;;;;;;7373850;19;20061;-64
2024/03/21 04:26:33;;;;;;;16.88;11.93;;;8.60;99.90;;;;;;7375705;19;20098;-68
2024/03/21 04:29:00;;;;;;;14.63;10.18;;;8.60;99.90;;;;;;7377176;19;20030;-67
2024/03/21 04:31:26;;;;;;;16.52;10.82;;;8.50;99.90;;;;;;7373474;19;20010;-67
2024/03/21 04:33:52;;;;;;;15.45;10.23;;;8.50;99.90;;;;;;7374344;19;20026;-67
2024/03/21 04:36:19;;;;;;;15.18;10.43;;;8.50;99.90;;;;;;7375505;19;20382;-64
2024/03/21 04:38:45;;;;;;;18.15;10.48;;;8.50;99.90;;;;;;7372102;19;20028;-64
2024/03/21 04:41:11;;;;;;;15.00;10.82;;;8.50;99.90;;;;;;7377185;19;20764;-64
2024/03/21 04:43:37;;;;;;;12.52;8.77;;;8.50;99.90;;;;;;7376128;19;20487;-64
2024/03/21 04:46:03;;;;;;;15.60;9.38;;;8.50;99.90;;;;;;7374889;19;20490;-64
2024/03/21 04:48:32;;;;;;;14.23;8.93;;;8.50;99.90;;;;;;7374099;19;20478;-67
2024/03/21 04:50:59;;;;;;;15.48;8.50;;;8.40;99.90;;;;;;7375230;19;20018;-64
2024/03/21 04:53:25;;;;;;;18.50;8.75;;;8.30;99.90;;;;;;7372814;19;20681;-64
2024/03/21 04:55:51;;;;;;;17.55;8.40;;;8.30;99.90;;;;;;7371595;19;20026;-67
2024/03/21 04:58:17;;;;;;;13.75;7.85;;;8.30;99.90;;;;;;7375816;19;20403;-68
2024/03/21 05:00:43;;;;;;;14.65;8.10;;;8.30;99.90;;;;;;7372903;19;20021;-64
2024/03/21 05:03:09;;;;;;;17.40;8.38;;;8.20;99.90;;;;;;7376185;19;20014;-64
2024/03/21 05:05:35;;;;;;;13.15;7.50;;;8.20;99.90;;;;;;7370678;19;20047;-64
2024/03/21 05:08:02;;;;;;;15.75;7.97;;;8.20;99.90;;;;;;7371350;19;20017;-63
2024/03/21 05:10:28;;;;;;;16.40;6.57;;;8.20;99.90;;;;;;7373739;19;20023;-67
2024/03/21 05:12:55;;;;;;;12.40;6.30;;;8.20;99.90;;;;;;7371886;19;20032;-66
2024/03/21 05:15:21;;;;;;;17.92;6.93;;;8.20;99.90;;;;;;7374601;19;20028;-67
2024/03/21 05:17:47;;;;;;;20.00;7.18;;;8.20;99.90;;;;;;7369328;19;20682;-67
2024/03/21 05:20:14;;;;;;;14.23;6.22;;;8.20;99.90;;;;;;7371579;19;20014;-67
2024/03/21 05:22:40;;;;;;;17.27;7.13;;;8.20;99.90;;;;;;7370996;19;20168;-64
2024/03/21 05:25:07;;;;;;;14.50;6.97;;;8.20;99.90;;;;;;7372773;19;20010;-64
2024/03/21 05:27:34;;;;;;;14.40;6.50;;;8.20;99.90;;;;;;7372680;19;20446;-68
2024/03/21 05:30:00;;;;;;;16.83;6.85;;;8.20;99.90;;;;;;7375395;19;20019;-65
2024/03/21 05:32:27;;;;;;;12.88;5.43;;;8.20;99.90;;;;;;7374961;19;20018;-64
2024/03/21 05:34:53;;;;;;;13.40;4.85;;;8.20;99.90;;;;;;7369842;19;20026;-64
2024/03/21 05:37:19;;;;;;;15.07;5.00;;;8.00;99.90;;;;;;7371116;19;20383;-64
2024/03/21 05:39:46;;;;;;;9.43;4.43;;;8.10;99.90;;;;;;7369073;19;20395;-64
2024/03/21 05:42:14;;;;;;;15.60;4.55;;;8.10;99.90;;;;;;7366980;19;20652;-64
2024/03/21 05:44:41;;;;;;;10.30;3.75;;;8.10;99.90;;;;;;7371332;19;20391;-67
2024/03/21 05:47:20;;;;;;;12.48;3.78;;;8.00;99.90;;;;;;7366672;19;20460;-67
2024/03/21 05:49:47;;;;;;;8.27;3.30;;;8.00;99.90;;;;;;7362455;19;20387;-67
2024/03/21 05:52:13;;;;;;;12.13;3.70;;;7.90;99.90;;;;;;7369610;19;20022;-67
2024/03/21 05:54:39;;;;;;;13.35;3.83;;;8.00;99.90;;;;;;7368543;19;20023;-64
2024/03/21 05:57:08;;;;;;;10.88;3.63;;;8.00;99.90;;;;;;7361447;19;20018;-67
2024/03/21 05:59:35;;;;;;;10.23;3.28;;;8.00;99.90;;;;;;7365796;19;20022;-68
2024/03/21 06:02:01;;;;;;;9.57;3.20;;;8.00;99.90;;;;;;7365664;19;20706;-67
2024/03/21 06:04:27;;;;;;;9.85;3.13;;;8.00;99.90;;;;;;7367550;19;20903;-66
2024/03/21 06:06:54;;;;;;;10.93;2.92;;;8.10;99.90;;;;;;7364526;19;20098;-64
2024/03/21 06:09:22;;;;;;;7.65;3.45;;;8.10;99.90;;;;;;7359653;19;20122;-64
2024/03/21 06:11:49;;;;;;;10.13;3.25;;;8.10;99.90;;;;;;7366819;19;20023;-66
2024/03/21 06:14:15;;;;;;;7.60;2.75;;;8.10;99.90;;;;;;7368823;19;20369;-66
2024/03/21 06:16:41;;;;;;;9.13;3.42;;;8.10;99.90;;;;;;7366930;19;20032;-66
2024/03/21 06:19:08;;;;;;;8.20;2.85;;;8.20;99.90;;;;;;7367953;19;20018;-66
2024/03/21 06:21:34;;;;;;;10.25;2.95;;;8.10;99.90;;;;;;7369100;19;20029;-65
2024/03/21 06:24:00;;;;;;;6.47;2.50;;;8.20;99.90;;;;;;7366733;19;20022;-62
2024/03/21 06:26:26;;;;;;;11.82;3.33;;;8.20;99.90;;;;;;7364104;19;20014;-62
2024/03/21 06:28:53;;;;;;;9.93;3.33;;;8.30;99.90;;;;;;7366562;19;20037;-63
2024/03/21 06:31:20;;;;;;;5.57;2.50;;;8.30;99.90;;;;;;7367977;19;20022;-63
2024/03/21 06:33:46;;;;;;;9.63;3.13;;;8.30;99.90;;;;;;7363388;19;20022;-62
2024/03/21 06:36:12;;;;;;;8.18;3.22;;;8.30;99.90;;;;;;7365436;19;20038;-63
2024/03/21 06:38:38;;;;;;;9.55;2.80;;;8.40;99.90;;;;;;7368808;19;20082;-63
2024/03/21 06:41:04;;;;;;;11.73;3.00;;;8.40;99.90;;;;;;7368124;19;20507;-63
2024/03/21 06:43:31;;;;;;;9.25;2.78;;;8.40;99.90;;;;;;7367967;19;20535;-67
2024/03/21 06:45:57;;;;;;;9.68;3.65;;;8.50;99.90;;;;;;7363376;19;20014;-63
2024/03/21 06:48:24;;;;;;;7.32;2.80;;;8.50;99.90;;;;;;7361894;19;20032;-62
2024/03/21 06:50:51;;;;;;;11.95;3.38;;;8.50;99.90;;;;;;7359801;19;20026;-63
2024/03/21 06:53:17;;;;;;;6.57;2.55;;;8.50;99.90;;;;;;7366979;19;20708;-62
2024/03/21 06:55:54;;;;;;;10.85;3.22;;;8.50;99.90;;;;;;7366706;19;507209;-68
2024/03/21 06:58:21;;;;;;;8.32;3.03;;;8.60;99.90;;;;;;7403368;19;20029;-63
2024/03/21 07:00:47;;;;;;;7.28;2.88;;;8.60;99.90;;;;;;7402112;19;20018;-68
2024/03/21 07:03:14;;;;;;;8.73;2.70;;;8.70;99.90;;;;;;7396627;19;20040;-67
2024/03/21 07:05:41;;;;;;;8.02;2.63;;;8.80;99.90;;;;;;7402406;19;20082;-63
2024/03/21 07:08:07;;;;;;;7.47;2.60;;;8.80;99.90;;;;;;7398036;19;20049;-63
2024/03/21 07:10:33;;;;;;;9.52;2.90;;;8.90;99.90;;;;;;7401166;19;20014;-63
2024/03/21 07:13:02;;;;;;;7.68;2.47;;;8.80;99.90;;;;;;7396626;19;20489;-63
2024/03/21 07:15:28;;;;;;;8.68;2.85;;;8.90;99.90;;;;;;7394605;19;20502;-68
2024/03/21 07:17:54;;;;;;;7.30;2.33;;;9.00;99.90;;;;;;7400036;19;20386;-68
2024/03/21 07:20:22;;;;;;;5.55;2.53;;;9.00;99.90;;;;;;7406095;19;20455;-67
2024/03/21 07:22:49;;;;;;;11.52;3.42;;;9.00;99.90;;;;;;7399807;19;20025;-67
2024/03/21 07:25:16;;;;;;;7.72;2.50;;;8.90;99.90;;;;;;7399738;19;20081;-62
2024/03/21 07:27:42;;;;;;;7.03;2.88;;;8.90;99.90;;;;;;7395980;19;20479;-63
2024/03/21 07:30:11;;;;;;;6.30;2.55;;;8.90;99.90;;;;;;7405009;19;20010;-67
2024/03/21 07:32:38;;;;;;;11.35;3.05;;;9.00;99.90;;;;;;7398256;19;20018;-65
2024/03/21 07:35:05;;;;;;;7.25;3.30;;;8.90;99.90;;;;;;7399711;19;20010;-61
2024/03/21 07:37:31;;;;;;;9.23;3.42;;;8.90;99.90;;;;;;7395590;19;20015;-63
2024/03/21 07:40:01;;;;;;;10.93;3.25;;;8.90;99.90;;;;;;7398993;19;20102;-63
2024/03/21 07:42:28;;;;;;;9.05;3.40;;;8.90;99.90;;;;;;7399898;19;20045;-67
2024/03/21 07:44:54;;;;;;;9.48;3.17;;;8.80;99.90;;;;;;7398783;19;20047;-67
2024/03/21 07:47:21;;;;;;;9.30;3.53;;;8.80;99.90;;;;;;7399454;19;20074;-67
2024/03/21 07:49:48;;;;;;;7.45;2.72;;;8.90;99.90;;;;;;7402836;19;20019;-67
2024/03/21 07:52:14;;;;;;;6.43;2.92;;;8.90;99.90;;;;;;7403767;19;20022;-67
2024/03/21 07:54:40;;;;;;;9.75;3.10;;;9.00;99.90;;;;;;7400402;19;20014;-68
2024/03/21 07:57:07;;;;;;;8.25;3.03;;;9.00;99.90;;;;;;7404203;19;20045;-66
2024/03/21 07:59:37;;;;;;;9.38;3.83;;;9.00;99.90;;;;;;7401396;19;20018;-67
2024/03/21 08:02:04;;;;;;;9.60;2.97;;;9.10;99.90;;;;;;7403202;19;20025;-67
2024/03/21 08:04:31;;;;;;;7.28;3.50;;;9.00;99.90;;;;;;7402672;19;20061;-67
2024/03/21 08:06:58;;;;;;;13.13;3.30;;;9.00;99.90;;;;;;7376978;19;20040;-67
2024/03/21 08:09:24;;;;;;;10.68;3.22;;;9.00;99.90;;;;;;7370183;19;20043;-67
2024/03/21 08:11:50;;;;;;;8.43;2.88;;;8.90;99.90;;;;;;7376841;19;20019;-68
2024/03/21 08:14:18;;;;;;;9.20;2.22;;;8.80;99.90;;;;;;7368111;19;20025;-68
2024/03/21 08:16:44;;;;;;;8.98;2.45;;;8.90;99.90;;;;;;7370286;19;20029;-68
2024/03/21 08:19:10;;;;;;;8.07;2.60;;;9.00;99.90;;;;;;7378610;19;20021;-68
2024/03/21 08:21:36;;;;;;;9.15;2.63;;;8.80;99.90;;;;;;7372919;19;20044;-68
2024/03/21 08:24:02;;;;;;;8.35;2.53;;;9.00;99.90;;;;;;7374964;19;20068;-65
2024/03/21 08:26:29;;;;;;;8.82;2.55;;;9.00;99.90;;;;;;7369846;19;20381;-68
2024/03/21 08:28:55;;;;;;;10.25;2.65;;;8.90;99.90;;;;;;7372570;19;20084;-68
2024/03/21 08:31:22;;;;;;;7.97;2.60;;;9.10;99.90;;;;;;7373460;19;20020;-68
2024/03/21 08:33:48;;;;;;;15.35;6.55;;;9.10;99.90;;;;;;7373380;19;20124;-66
2024/03/21 08:36:14;;;;;;;13.48;3.85;;;9.20;99.90;;;;;;7372354;19;20105;-64
2024/03/21 08:38:40;;;;;;;13.73;3.22;;;9.30;99.90;;;;;;7374420;19;20024;-67
2024/03/21 08:41:07;;;;;;;10.15;2.78;;;9.40;99.90;;;;;;7373776;19;20015;-67
2024/03/21 08:43:33;;;;;;;8.93;2.60;;;9.40;99.90;;;;;;7366023;19;20094;-65
2024/03/21 08:46:03;;;;;;;11.38;2.92;;;9.20;99.90;;;;;;7371824;19;20045;-62
2024/03/21 08:48:29;;;;;;;10.55;2.55;;;9.00;99.90;;;;;;7368066;19;20044;-64
2024/03/21 08:50:55;;;;;;;8.23;3.17;;;9.20;99.90;;;;;;7372300;19;20050;-66
2024/03/21 08:53:21;;;;;;;6.05;2.65;;;9.20;99.90;;;;;;7369330;19;20724;-65
2024/03/21 08:55:48;;;;;;;7.10;2.63;;;9.10;99.90;;;;;;7367973;19;20019;-62
2024/03/21 08:58:14;;;;;;;11.10;3.10;;;9.00;99.90;;;;;;7367876;19;20400;-65
2024/03/21 09:00:41;;;;;;;6.70;2.95;;;9.20;99.90;;;;;;7369962;19;20097;-66
2024/03/21 09:03:11;;;;;;;6.80;2.72;;;9.10;99.90;;;;;;7367903;19;20435;-66
2024/03/21 09:05:37;;;;;;;7.97;3.05;;;9.30;99.90;;;;;;7370399;19;20485;-66
2024/03/21 09:08:03;;;;;;;7.95;2.90;;;9.50;99.90;;;;;;7372869;19;22099;-66
2024/03/21 09:10:30;;;;;;;7.18;2.58;;;9.50;99.90;;;;;;7366211;19;20040;-66
2024/03/21 09:12:56;;;;;;;7.03;2.58;;;9.50;99.90;;;;;;7369262;19;20026;-64
2024/03/21 09:15:22;;;;;;;8.88;2.60;;;9.60;99.90;;;;;;7365268;19;20034;-64
2024/03/21 09:17:49;;;;;;;10.60;3.10;;;9.70;99.90;;;;;;7362658;19;20022;-66
2024/03/21 09:20:15;;;;;;;9.15;3.08;;;9.70;99.90;;;;;;7365476;19;20124;-66
2024/03/21 09:22:41;;;;;;;12.60;3.10;;;9.70;99.90;;;;;;7363934;19;20015;-64
2024/03/21 09:25:08;;;;;;;14.70;4.20;;;9.70;99.90;;;;;;7365448;19;20087;-64
2024/03/21 09:27:34;;;;;;;8.45;3.50;;;9.40;99.90;;;;;;7364290;19;20018;-64
2024/03/21 09:30:04;;;;;;;8.73;3.10;;;9.30;99.90;;;;;;7365358;19;20112;-65
2024/03/21 09:32:32;;;;;;;12.45;3.80;;;9.40;99.90;;;;;;7363038;19;20018;-66
2024/03/21 09:34:58;;;;;;;12.55;3.10;;;9.30;99.90;;;;;;7367883;19;20019;-65
2024/03/21 09:37:24;;;;;;;11.00;3.15;;;9.40;99.90;;;;;;7363887;19;21018;-66
2024/03/21 09:39:51;;;;;;;9.07;3.15;;;9.40;99.90;;;;;;7363536;19;20862;-66
2024/03/21 09:42:19;;;;;;;8.30;3.65;;;9.60;99.90;;;;;;7357052;19;20030;-66
2024/03/21 09:44:49;;;;;;;8.85;3.13;;;9.70;99.90;;;;;;7364566;19;20018;-66
2024/03/21 09:47:23;;;;;;;9.55;3.10;;;9.70;99.90;;;;;;7366531;19;20023;-66
2024/03/21 09:49:50;;;;;;;7.30;2.80;;;9.50;99.90;;;;;;7367061;19;20041;-66
2024/03/21 09:52:16;;;;;;;10.15;2.50;;;9.30;99.90;;;;;;7366711;19;20018;-66
2024/03/21 09:54:43;;;;;;;8.57;2.72;;;9.40;99.90;;;;;;7367343;19;20022;-66
2024/03/21 09:57:13;;;;;;;7.38;2.60;;;9.50;99.90;;;;;;7366654;19;20538;-66
2024/03/21 09:59:40;;;;;;;8.60;2.50;;;9.60;99.90;;;;;;7367556;19;20026;-64
2024/03/21 10:02:14;;;;;;;12.95;3.17;;;9.60;99.90;;;;;;7368078;19;20018;-67
2024/03/21 10:04:49;;;;;;;7.70;2.40;;;9.80;99.90;;;;;;7377608;19;20050;-66
2024/03/21 10:07:20;;;;;;;10.23;3.15;;;10.00;99.90;;;;;;7374721;19;20749;-67
2024/03/21 10:09:58;;;;;;;9.68;3.45;;;10.10;99.90;;;;;;7372975;19;20098;-66
2024/03/21 10:12:25;;;;;;;10.35;2.90;;;9.90;99.90;;;;;;7368224;19;20576;-66
2024/03/21 10:14:55;;;;;;;9.32;3.90;;;9.80;99.90;;;;;;7371260;19;20035;-66
2024/03/21 10:17:22;;;;;;;6.65;2.40;;;10.00;99.90;;;;;;7368835;19;20418;-66
2024/03/21 10:19:48;;;;;;;8.40;2.95;;;10.00;99.90;;;;;;7366456;19;20039;-65
2024/03/21 10:22:20;;;;;;;8.25;2.42;;;10.10;99.90;;;;;;7372011;19;20021;-65
2024/03/21 10:25:03;;;;;;;7.53;2.08;;;10.10;99.90;;;;;;7371486;19;20022;-66
2024/03/21 10:27:30;;;;;;;8.27;2.17;;;10.60;99.90;;;;;;7374049;19;20082;-65
2024/03/21 10:29:58;;;;;;;8.05;2.95;;;10.70;99.90;;;;;;7370767;19;20883;-64
2024/03/21 10:32:25;;;;;;;8.27;2.50;;;10.90;99.90;;;;;;7372649;19;20833;-65
2024/03/21 10:34:53;;;;;;;7.45;2.40;;;10.80;99.90;;;;;;7371917;19;20018;-65
2024/03/21 10:37:21;;;;;;;8.60;2.83;;;10.70;99.90;;;;;;7375573;19;20018;-64
2024/03/21 10:39:49;;;;;;;6.95;2.47;;;10.60;99.90;;;;;;7370418;19;20492;-65
2024/03/21 10:42:31;;;;;;;13.25;3.42;;;10.50;99.90;;;;;;7370059;19;20022;-65
2024/03/21 10:45:05;;;;;;;10.00;3.38;;;10.20;99.90;;;;;;7368773;19;20027;-64
2024/03/21 10:47:32;;;;;;;9.35;2.92;;;10.10;99.90;;;;;;7374822;19;20025;-65
2024/03/21 10:49:58;;;;;;;12.38;2.70;;;10.10;99.90;;;;;;7371308;19;20045;-64
2024/03/21 10:52:25;;;;;;;9.98;3.05;;;10.10;99.90;;;;;;7371999;19;20022;-65
2024/03/21 10:54:53;;;;;;;6.53;3.20;;;10.10;99.90;;;;;;7369082;19;20022;-66
2024/03/21 10:57:23;;;;;;;7.13;2.40;;;10.10;99.90;;;;;;7373412;19;20021;-66
2024/03/21 11:00:09;;;;;;;6.25;2.15;;;10.30;99.90;;;;;;7370154;19;21062;-64
2024/03/21 11:02:42;;;;;;;7.95;2.65;;;10.40;99.90;;;;;;7374084;19;20483;-66
2024/03/21 11:05:12;;;;;;;;;;;10.60;99.90;;;;;;7370852;19;20366;-63
2024/03/21 11:07:39;;;;;;;6.10;2.30;;;10.60;99.90;;;;;;7372403;19;19919;-66
2024/03/21 11:10:14;;;;;;;9.18;3.05;;;10.40;99.90;;;;;;7372955;19;20036;-63
2024/03/21 11:12:40;;;;;;;10.88;3.22;;;10.30;99.90;;;;;;7371209;19;20018;-65
2024/03/21 11:15:08;;;;;;;9.32;3.03;;;10.30;99.90;;;;;;7369040;19;20019;-66
2024/03/21 11:17:34;;;;;;;10.43;2.88;;;10.30;99.90;;;;;;7377096;19;20104;-66
2024/03/21 11:20:05;;;;;;;10.82;3.47;;;10.50;99.90;;;;;;7371822;19;20040;-65
2024/03/21 11:22:32;;;;;;;9.35;3.30;;;10.30;99.90;;;;;;7373885;19;20030;-65
2024/03/21 11:25:01;;;;;;;7.28;3.38;;;10.50;99.90;;;;;;7368715;19;20430;-65
2024/03/21 11:27:29;;;;;;;8.65;3.95;;;10.50;99.90;;;;;;7376747;19;21525;-65
2024/03/21 11:29:55;;;;;;;10.23;3.65;;;10.40;99.90;;;;;;7366581;19;21458;-65
2024/03/21 11:32:23;;;;;;;8.38;3.20;;;10.30;99.90;;;;;;7371911;19;20019;-65
2024/03/21 11:34:50;;;;;;;6.75;3.28;;;10.30;99.90;;;;;;7368474;19;20672;-65
2024/03/21 11:37:17;;;;;;;6.68;3.47;;;10.30;99.90;;;;;;7373848;19;20345;-65
2024/03/21 11:39:44;;;;;;;7.20;3.00;;;10.50;99.90;;;;;;7374330;19;20018;-66
2024/03/21 11:42:12;;;;;;;7.90;2.95;;;10.50;99.90;;;;;;7381856;19;20018;-65
2024/03/21 11:44:43;;;;;;;7.38;2.83;;;10.70;99.90;;;;;;7380458;19;20037;-63
2024/03/21 11:47:16;;;;;;;7.45;2.88;;;10.80;99.90;;;;;;7380907;19;20019;-64
2024/03/21 11:49:52;;;;;;;7.13;2.72;;;10.90;99.90;;;;;;7374153;19;20482;-67
2024/03/21 11:52:20;;;;;;;6.57;2.90;;;10.90;99.90;;;;;;7378094;19;20037;-64
2024/03/21 11:54:47;;;;;;;9.70;3.03;;;11.00;99.90;;;;;;7378056;19;20018;-64
2024/03/21 11:57:15;;;;;;;6.60;3.28;;;10.80;99.90;;;;;;7376283;19;20933;-64
2024/03/21 11:59:42;;;;;;;6.68;2.92;;;10.90;99.90;;;;;;7377910;19;20792;-66
2024/03/21 12:02:14;;;;;;;11.65;4.13;;;10.80;99.90;;;;;;7380186;19;20017;-66
2024/03/21 12:04:41;;;;;;;6.60;3.20;;;10.80;99.90;;;;;;7374010;19;20078;-66
2024/03/21 12:07:12;;;;;;;6.57;2.92;;;10.90;99.90;;;;;;7376368;19;20018;-65
2024/03/21 12:09:41;;;;;;;10.70;3.35;;;11.00;99.90;;;;;;7375110;19;20021;-64
2024/03/21 12:12:14;;;;;;;9.27;3.70;;;10.70;99.90;;;;;;7375505;19;20109;-64
2024/03/21 12:14:44;;;;;;;9.98;4.03;;;10.70;99.90;;;;;;7375718;19;20026;-65
2024/03/21 12:17:11;;;;;;;6.57;3.97;;;10.70;99.90;;;;;;7374575;19;20036;-64
2024/03/21 12:19:38;;;;;;;9.02;4.25;;;10.60;99.90;;;;;;7373856;19;20018;-65
2024/03/21 12:22:11;;;;;;;11.40;4.57;;;10.60;99.90;;;;;;7373171;19;20023;-63
2024/03/21 12:24:39;;;;;;;8.75;3.70;;;10.40;99.90;;;;;;7376710;19;20037;-64
2024/03/21 12:27:06;;;;;;;6.97;3.60;;;10.70;99.90;;;;;;7373780;19;20184;-67
2024/03/21 12:29:34;;;;;;;8.68;3.65;;;10.70;99.90;;;;;;7375767;19;20026;-67
2024/03/21 12:32:01;;;;;;;9.07;3.60;;;10.80;99.90;;;;;;7375931;19;20018;-64
2024/03/21 12:34:27;;;;;;;6.95;3.28;;;10.70;99.90;;;;;;7374445;19;20108;-64
2024/03/21 12:36:53;;;;;;;5.85;3.42;;;10.70;99.90;;;;;;7376113;19;20039;-64
2024/03/21 12:39:20;;;;;;;8.45;3.50;;;10.70;99.90;;;;;;7374818;19;21096;-64
2024/03/21 12:41:46;;;;;;;12.18;5.28;;;10.50;99.90;;;;;;7377200;19;20015;-64
2024/03/21 12:44:14;;;;;;;9.88;5.15;;;10.50;99.90;;;;;;7377601;19;20378;-64
2024/03/21 12:46:40;;;;;;;9.05;4.35;;;10.40;99.90;;;;;;7377859;19;20018;-64
2024/03/21 12:49:06;;;;;;;10.77;5.30;;;10.50;99.90;;;;;;7372921;19;20014;-64
2024/03/21 12:51:33;;;;;;;11.25;4.80;;;10.50;99.90;;;;;;7374766;19;20027;-62